sensor_id;sensor_type;location;lat;lon;timestamp;temperature;humidity
12315;DHT22;23886;46.614;14.276;2022-12-07T00:01:55;3.10;99.90
12315;DHT22;23886;46.614;14.276;2022-12-07T00:04:22;3.20;99.90
12315;DHT22;23886;46.614;14.276;2022-12-07T00:06:52;3.20;99.90
12315;DHT22;23886;46.614;14.276;2022-12-07T00:09:19;3.10;99.90
12315;DHT22;23886;46.614;14.276;2022-12-07T00:11:49;3.10;99.90
12315;DHT22;23886;46.614;14.276;2022-12-07T00:14:18;3.10;99.90
12315;DHT22;23886;46.614;14.276;2022-12-07T00:16:46;3.20;99.90
12315;DHT22;23886;46.614;14.276;2022-12-07T00:19:15;3.10;99.90
12315;DHT22;23886;46.614;14.276;2022-12-07T00:21:42;3.00;99.90
12315;DHT22;23886;46.614;14.276;2022-12-07T00:24:11;2.90;99.90
12315;DHT22;23886;46.614;14.276;2022-12-07T00:26:40;3.00;99.90
12315;DHT22;23886;46.614;14.276;2022-12-07T00:29:18;3.00;99.90
12315;DHT22;23886;46.614;14.276;2022-12-07T00:31:46;3.10;99.90
12315;DHT22;23886;46.614;14.276;2022-12-07T00:34:15;3.00;99.90
12315;DHT22;23886;46.614;14.276;2022-12-07T00:36:42;3.00;99.90
12315;DHT22;23886;46.614;14.276;2022-12-07T00:39:10;3.10;99.90
12315;DHT22;23886;46.614;14.276;2022-12-07T00:41:37;3.10;99.90
12315;DHT22;23886;46.614;14.276;2022-12-07T00:44:04;3.20;99.90
12315;DHT22;23886;46.614;14.276;2022-12-07T00:46:32;3.20;99.90
12315;DHT22;23886;46.614;14.276;2022-12-07T00:48:59;3.10;99.90
12315;DHT22;23886;46.614;14.276;2022-12-07T00:51:26;3.00;99.90
12315;DHT22;23886;46.614;14.276;2022-12-07T00:53:53;2.90;99.90
12315;DHT22;23886;46.614;14.276;2022-12-07T00:56:24;3.00;99.90
12315;DHT22;23886;46.614;14.276;2022-12-07T00:58:52;3.00;99.90
12315;DHT22;23886;46.614;14.276;2022-12-07T01:01:19;3.00;99.90
12315;DHT22;23886;46.614;14.276;2022-12-07T01:03:47;2.90;99.90
12315;DHT22;23886;46.614;14.276;2022-12-07T01:06:15;2.90;99.90
12315;DHT22;23886;46.614;14.276;2022-12-07T01:08:42;3.00;99.90
12315;DHT22;23886;46.614;14.276;2022-12-07T01:11:12;3.00;99.90
12315;DHT22;23886;46.614;14.276;2022-12-07T01:13:41;2.90;99.90
12315;DHT22;23886;46.614;14.276;2022-12-07T01:16:11;2.90;99.90
12315;DHT22;23886;46.614;14.276;2022-12-07T01:18:38;3.00;99.90
12315;DHT22;23886;46.614;14.276;2022-12-07T01:21:07;2.90;99.90
12315;DHT22;23886;46.614;14.276;2022-12-07T01:23:35;2.90;99.90
12315;DHT22;23886;46.614;14.276;2022-12-07T01:26:04;2.90;99.90
12315;DHT22;23886;46.614;14.276;2022-12-07T01:28:32;2.80;99.90
12315;DHT22;23886;46.614;14.276;2022-12-07T01:31:02;2.80;99.90
12315;DHT22;23886;46.614;14.276;2022-12-07T01:33:31;2.80;99.90
12315;DHT22;23886;46.614;14.276;2022-12-07T01:36:01;2.80;99.90
12315;DHT22;23886;46.614;14.276;2022-12-07T01:38:29;2.70;99.90
12315;DHT22;23886;46.614;14.276;2022-12-07T01:40:56;2.80;99.90
12315;DHT22;23886;46.614;14.276;2022-12-07T01:43:25;2.70;99.90
12315;DHT22;23886;46.614;14.276;2022-12-07T01:45:52;2.70;99.90
12315;DHT22;23886;46.614;14.276;2022-12-07T01:48:24;2.70;99.90
12315;DHT22;23886;46.614;14.276;2022-12-07T01:50:53;2.70;99.90
12315;DHT22;23886;46.614;14.276;2022-12-07T01:53:24;2.70;99.90
12315;DHT22;23886;46.614;14.276;2022-12-07T01:55:52;2.80;99.90
12315;DHT22;23886;46.614;14.276;2022-12-07T01:58:20;2.70;99.90
12315;DHT22;23886;46.614;14.276;2022-12-07T02:00:48;2.80;99.90
12315;DHT22;23886;46.614;14.276;2022-12-07T02:03:18;2.80;99.90
12315;DHT22;23886;46.614;14.276;2022-12-07T02:05:48;2.80;99.90
12315;DHT22;23886;46.614;14.276;2022-12-07T02:08:16;2.70;99.90
12315;DHT22;23886;46.614;14.276;2022-12-07T02:10:44;2.80;99.90
12315;DHT22;23886;46.614;14.276;2022-12-07T02:13:13;2.70;99.90
12315;DHT22;23886;46.614;14.276;2022-12-07T02:16:02;2.80;99.90
12315;DHT22;23886;46.614;14.276;2022-12-07T02:18:44;2.80;99.90
12315;DHT22;23886;46.614;14.276;2022-12-07T02:21:18;2.90;99.90
12315;DHT22;23886;46.614;14.276;2022-12-07T02:24:10;2.90;99.90
12315;DHT22;23886;46.614;14.276;2022-12-07T02:29:48;2.90;99.90
12315;DHT22;23886;46.614;14.276;2022-12-07T02:32:20;2.90;99.90
12315;DHT22;23886;46.614;14.276;2022-12-07T02:34:52;2.90;99.90
12315;DHT22;23886;46.614;14.276;2022-12-07T02:37:29;2.80;99.90
12315;DHT22;23886;46.614;14.276;2022-12-07T02:40:04;2.80;99.90
12315;DHT22;23886;46.614;14.276;2022-12-07T02:42:38;2.80;99.90
12315;DHT22;23886;46.614;14.276;2022-12-07T02:45:09;2.80;99.90
12315;DHT22;23886;46.614;14.276;2022-12-07T02:47:37;2.80;99.90
12315;DHT22;23886;46.614;14.276;2022-12-07T02:50:07;2.80;99.90
12315;DHT22;23886;46.614;14.276;2022-12-07T02:52:34;2.80;99.90
12315;DHT22;23886;46.614;14.276;2022-12-07T02:55:01;2.80;99.90
12315;DHT22;23886;46.614;14.276;2022-12-07T02:57:40;2.80;99.90
12315;DHT22;23886;46.614;14.276;2022-12-07T03:00:13;2.80;99.90
12315;DHT22;23886;46.614;14.276;2022-12-07T03:02:50;2.80;99.90
12315;DHT22;23886;46.614;14.276;2022-12-07T03:05:33;2.80;99.90
12315;DHT22;23886;46.614;14.276;2022-12-07T03:08:07;2.70;99.90
12315;DHT22;23886;46.614;14.276;2022-12-07T03:10:44;2.70;99.90
12315;DHT22;23886;46.614;14.276;2022-12-07T03:13:18;2.70;99.90
12315;DHT22;23886;46.614;14.276;2022-12-07T03:15:54;2.70;99.90
12315;DHT22;23886;46.614;14.276;2022-12-07T03:18:25;2.70;99.90
12315;DHT22;23886;46.614;14.276;2022-12-07T03:20:57;2.70;99.90
12315;DHT22;23886;46.614;14.276;2022-12-07T03:23:25;2.70;99.90
12315;DHT22;23886;46.614;14.276;2022-12-07T03:25:56;2.80;99.90
12315;DHT22;23886;46.614;14.276;2022-12-07T03:28:27;2.80;99.90
12315;DHT22;23886;46.614;14.276;2022-12-07T03:31:00;2.80;99.90
12315;DHT22;23886;46.614;14.276;2022-12-07T03:33:32;2.80;99.90
12315;DHT22;23886;46.614;14.276;2022-12-07T03:36:05;2.80;99.90
12315;DHT22;23886;46.614;14.276;2022-12-07T03:38:37;2.70;99.90
12315;DHT22;23886;46.614;14.276;2022-12-07T03:41:08;2.70;99.90
12315;DHT22;23886;46.614;14.276;2022-12-07T03:43:37;2.60;99.90
12315;DHT22;23886;46.614;14.276;2022-12-07T03:46:15;2.60;99.90
12315;DHT22;23886;46.614;14.276;2022-12-07T03:48:51;2.70;99.90
12315;DHT22;23886;46.614;14.276;2022-12-07T03:51:22;2.70;99.90
12315;DHT22;23886;46.614;14.276;2022-12-07T03:53:57;2.60;99.90
12315;DHT22;23886;46.614;14.276;2022-12-07T03:56:26;2.70;99.90
12315;DHT22;23886;46.614;14.276;2022-12-07T03:58:55;2.60;99.90
12315;DHT22;23886;46.614;14.276;2022-12-07T04:01:24;2.60;99.90
12315;DHT22;23886;46.614;14.276;2022-12-07T04:03:52;2.60;99.90
12315;DHT22;23886;46.614;14.276;2022-12-07T04:06:19;2.60;99.90
12315;DHT22;23886;46.614;14.276;2022-12-07T04:08:46;2.60;99.90
12315;DHT22;23886;46.614;14.276;2022-12-07T04:11:13;2.50;99.90
12315;DHT22;23886;46.614;14.276;2022-12-07T04:13:40;2.50;99.90
12315;DHT22;23886;46.614;14.276;2022-12-07T04:16:25;2.50;99.90
12315;DHT22;23886;46.614;14.276;2022-12-07T04:18:52;2.60;99.90
12315;DHT22;23886;46.614;14.276;2022-12-07T04:21:19;2.60;99.90
12315;DHT22;23886;46.614;14.276;2022-12-07T04:23:46;2.60;99.90
12315;DHT22;23886;46.614;14.276;2022-12-07T04:26:13;2.60;99.90
12315;DHT22;23886;46.614;14.276;2022-12-07T04:28:40;2.50;99.90
12315;DHT22;23886;46.614;14.276;2022-12-07T04:31:07;2.50;99.90
12315;DHT22;23886;46.614;14.276;2022-12-07T04:33:36;2.50;99.90
12315;DHT22;23886;46.614;14.276;2022-12-07T04:36:04;2.50;99.90
12315;DHT22;23886;46.614;14.276;2022-12-07T04:38:31;2.40;99.90
12315;DHT22;23886;46.614;14.276;2022-12-07T04:40:59;2.50;99.90
12315;DHT22;23886;46.614;14.276;2022-12-07T04:43:30;2.50;99.90
12315;DHT22;23886;46.614;14.276;2022-12-07T04:45:57;2.50;99.90
12315;DHT22;23886;46.614;14.276;2022-12-07T04:48:24;2.40;99.90
12315;DHT22;23886;46.614;14.276;2022-12-07T04:50:52;2.50;99.90
12315;DHT22;23886;46.614;14.276;2022-12-07T04:53:19;2.60;99.90
12315;DHT22;23886;46.614;14.276;2022-12-07T04:55:47;2.50;99.90
12315;DHT22;23886;46.614;14.276;2022-12-07T04:58:14;2.50;99.90
12315;DHT22;23886;46.614;14.276;2022-12-07T05:00:41;2.50;99.90
12315;DHT22;23886;46.614;14.276;2022-12-07T05:03:08;2.40;99.90
12315;DHT22;23886;46.614;14.276;2022-12-07T05:05:35;2.50;99.90
12315;DHT22;23886;46.614;14.276;2022-12-07T05:08:03;2.50;99.90
12315;DHT22;23886;46.614;14.276;2022-12-07T05:10:30;2.50;99.90
12315;DHT22;23886;46.614;14.276;2022-12-07T05:12:57;2.50;99.90
12315;DHT22;23886;46.614;14.276;2022-12-07T05:15:24;2.40;99.90
12315;DHT22;23886;46.614;14.276;2022-12-07T05:17:51;2.50;99.90
12315;DHT22;23886;46.614;14.276;2022-12-07T05:20:18;2.50;99.90
12315;DHT22;23886;46.614;14.276;2022-12-07T05:22:45;2.50;99.90
12315;DHT22;23886;46.614;14.276;2022-12-07T05:25:14;2.60;99.90
12315;DHT22;23886;46.614;14.276;2022-12-07T05:27:41;2.60;99.90
12315;DHT22;23886;46.614;14.276;2022-12-07T05:30:08;2.50;99.90
12315;DHT22;23886;46.614;14.276;2022-12-07T05:32:36;2.50;99.90
12315;DHT22;23886;46.614;14.276;2022-12-07T05:35:03;2.40;99.90
12315;DHT22;23886;46.614;14.276;2022-12-07T05:37:30;2.40;99.90
12315;DHT22;23886;46.614;14.276;2022-12-07T05:39:57;2.40;99.90
12315;DHT22;23886;46.614;14.276;2022-12-07T05:42:25;2.40;99.90
12315;DHT22;23886;46.614;14.276;2022-12-07T05:44:52;2.40;99.90
12315;DHT22;23886;46.614;14.276;2022-12-07T05:47:19;2.40;99.90
12315;DHT22;23886;46.614;14.276;2022-12-07T05:49:46;2.40;99.90
12315;DHT22;23886;46.614;14.276;2022-12-07T05:52:13;2.40;99.90
12315;DHT22;23886;46.614;14.276;2022-12-07T05:54:40;2.40;99.90
12315;DHT22;23886;46.614;14.276;2022-12-07T05:57:07;2.40;99.90
12315;DHT22;23886;46.614;14.276;2022-12-07T05:59:35;2.40;99.90
12315;DHT22;23886;46.614;14.276;2022-12-07T06:02:04;2.40;99.90
12315;DHT22;23886;46.614;14.276;2022-12-07T06:04:33;2.40;99.90
12315;DHT22;23886;46.614;14.276;2022-12-07T06:07:00;2.30;99.90
12315;DHT22;23886;46.614;14.276;2022-12-07T06:09:28;2.30;99.90
12315;DHT22;23886;46.614;14.276;2022-12-07T06:11:55;2.30;99.90
12315;DHT22;23886;46.614;14.276;2022-12-07T06:14:42;2.30;99.90
12315;DHT22;23886;46.614;14.276;2022-12-07T06:17:09;2.40;99.90
12315;DHT22;23886;46.614;14.276;2022-12-07T06:19:36;2.40;99.90
12315;DHT22;23886;46.614;14.276;2022-12-07T06:22:03;2.40;99.90
12315;DHT22;23886;46.614;14.276;2022-12-07T06:24:31;2.30;99.90
12315;DHT22;23886;46.614;14.276;2022-12-07T06:26:58;2.30;99.90
12315;DHT22;23886;46.614;14.276;2022-12-07T06:29:25;2.30;99.90
12315;DHT22;23886;46.614;14.276;2022-12-07T06:31:53;2.30;99.90
12315;DHT22;23886;46.614;14.276;2022-12-07T06:34:21;2.30;99.90
12315;DHT22;23886;46.614;14.276;2022-12-07T06:36:49;2.30;99.90
12315;DHT22;23886;46.614;14.276;2022-12-07T06:39:19;2.20;99.90
12315;DHT22;23886;46.614;14.276;2022-12-07T06:41:46;2.30;99.90
12315;DHT22;23886;46.614;14.276;2022-12-07T06:44:14;2.20;99.90
12315;DHT22;23886;46.614;14.276;2022-12-07T06:46:41;2.20;99.90
12315;DHT22;23886;46.614;14.276;2022-12-07T06:49:09;2.30;99.90
12315;DHT22;23886;46.614;14.276;2022-12-07T06:51:36;2.40;99.90
12315;DHT22;23886;46.614;14.276;2022-12-07T06:54:06;2.30;99.90
12315;DHT22;23886;46.614;14.276;2022-12-07T06:56:34;2.40;99.90
12315;DHT22;23886;46.614;14.276;2022-12-07T06:59:01;2.30;99.90
12315;DHT22;23886;46.614;14.276;2022-12-07T07:01:28;2.30;99.90
12315;DHT22;23886;46.614;14.276;2022-12-07T07:03:55;2.40;99.90
12315;DHT22;23886;46.614;14.276;2022-12-07T07:06:23;2.40;99.90
12315;DHT22;23886;46.614;14.276;2022-12-07T07:08:50;2.40;99.90
12315;DHT22;23886;46.614;14.276;2022-12-07T07:11:18;2.40;99.90
12315;DHT22;23886;46.614;14.276;2022-12-07T07:13:45;2.30;99.90
12315;DHT22;23886;46.614;14.276;2022-12-07T07:16:12;2.40;99.90
12315;DHT22;23886;46.614;14.276;2022-12-07T07:18:39;2.40;99.90
12315;DHT22;23886;46.614;14.276;2022-12-07T07:21:06;2.50;99.90
12315;DHT22;23886;46.614;14.276;2022-12-07T07:23:36;2.50;99.90
12315;DHT22;23886;46.614;14.276;2022-12-07T07:26:03;2.40;99.90
12315;DHT22;23886;46.614;14.276;2022-12-07T07:28:30;2.40;99.90
12315;DHT22;23886;46.614;14.276;2022-12-07T07:30:57;2.50;99.90
12315;DHT22;23886;46.614;14.276;2022-12-07T07:33:24;2.50;99.90
12315;DHT22;23886;46.614;14.276;2022-12-07T07:35:51;2.60;99.90
12315;DHT22;23886;46.614;14.276;2022-12-07T07:38:18;2.60;99.90
12315;DHT22;23886;46.614;14.276;2022-12-07T07:40:46;2.60;99.90
12315;DHT22;23886;46.614;14.276;2022-12-07T07:43:13;2.60;99.90
12315;DHT22;23886;46.614;14.276;2022-12-07T07:45:40;2.60;99.90
12315;DHT22;23886;46.614;14.276;2022-12-07T07:48:07;2.60;99.90
12315;DHT22;23886;46.614;14.276;2022-12-07T07:50:34;2.50;99.90
12315;DHT22;23886;46.614;14.276;2022-12-07T07:53:01;2.50;99.90
12315;DHT22;23886;46.614;14.276;2022-12-07T07:55:28;2.50;99.90
12315;DHT22;23886;46.614;14.276;2022-12-07T07:57:56;2.60;99.90
12315;DHT22;23886;46.614;14.276;2022-12-07T08:00:23;2.60;99.90
12315;DHT22;23886;46.614;14.276;2022-12-07T08:02:50;2.60;99.90
12315;DHT22;23886;46.614;14.276;2022-12-07T08:05:17;2.70;99.90
12315;DHT22;23886;46.614;14.276;2022-12-07T08:07:44;2.60;99.90
12315;DHT22;23886;46.614;14.276;2022-12-07T08:10:13;2.60;99.90
12315;DHT22;23886;46.614;14.276;2022-12-07T08:12:41;2.70;99.90
12315;DHT22;23886;46.614;14.276;2022-12-07T08:15:24;2.60;99.90
12315;DHT22;23886;46.614;14.276;2022-12-07T08:17:51;2.70;99.90
12315;DHT22;23886;46.614;14.276;2022-12-07T08:20:19;2.70;99.90
12315;DHT22;23886;46.614;14.276;2022-12-07T08:22:46;2.70;99.90
12315;DHT22;23886;46.614;14.276;2022-12-07T08:25:13;2.80;99.90
12315;DHT22;23886;46.614;14.276;2022-12-07T08:27:39;2.80;99.90
12315;DHT22;23886;46.614;14.276;2022-12-07T08:30:07;2.90;99.90
12315;DHT22;23886;46.614;14.276;2022-12-07T08:32:36;2.90;99.90
12315;DHT22;23886;46.614;14.276;2022-12-07T08:35:03;2.90;99.90
12315;DHT22;23886;46.614;14.276;2022-12-07T08:37:31;3.00;99.90
12315;DHT22;23886;46.614;14.276;2022-12-07T08:39:58;3.10;99.90
12315;DHT22;23886;46.614;14.276;2022-12-07T08:42:26;3.00;99.90
12315;DHT22;23886;46.614;14.276;2022-12-07T08:44:55;2.90;99.90
12315;DHT22;23886;46.614;14.276;2022-12-07T08:47:23;2.90;99.90
12315;DHT22;23886;46.614;14.276;2022-12-07T08:49:53;3.00;99.90
12315;DHT22;23886;46.614;14.276;2022-12-07T08:52:21;3.00;99.90
12315;DHT22;23886;46.614;14.276;2022-12-07T08:54:48;3.00;99.90
12315;DHT22;23886;46.614;14.276;2022-12-07T08:57:15;3.00;99.90
12315;DHT22;23886;46.614;14.276;2022-12-07T08:59:42;3.00;99.90
12315;DHT22;23886;46.614;14.276;2022-12-07T09:02:09;3.10;99.90
12315;DHT22;23886;46.614;14.276;2022-12-07T09:04:36;3.10;99.90
12315;DHT22;23886;46.614;14.276;2022-12-07T09:07:05;3.30;99.90
12315;DHT22;23886;46.614;14.276;2022-12-07T09:09:32;3.30;99.90
12315;DHT22;23886;46.614;14.276;2022-12-07T09:11:59;3.30;99.90
12315;DHT22;23886;46.614;14.276;2022-12-07T09:14:26;3.20;99.90
12315;DHT22;23886;46.614;14.276;2022-12-07T09:16:53;3.20;99.90
12315;DHT22;23886;46.614;14.276;2022-12-07T09:19:20;3.30;99.90
12315;DHT22;23886;46.614;14.276;2022-12-07T09:21:47;3.40;99.90
12315;DHT22;23886;46.614;14.276;2022-12-07T09:24:15;3.40;99.90
12315;DHT22;23886;46.614;14.276;2022-12-07T09:26:42;3.70;99.90
12315;DHT22;23886;46.614;14.276;2022-12-07T09:29:10;3.50;99.90
12315;DHT22;23886;46.614;14.276;2022-12-07T09:31:37;3.30;99.90
12315;DHT22;23886;46.614;14.276;2022-12-07T09:34:04;3.20;99.90
12315;DHT22;23886;46.614;14.276;2022-12-07T09:36:33;3.10;99.90
12315;DHT22;23886;46.614;14.276;2022-12-07T09:39:00;3.10;99.90
12315;DHT22;23886;46.614;14.276;2022-12-07T09:41:30;3.10;99.90
12315;DHT22;23886;46.614;14.276;2022-12-07T09:44:03;3.10;99.90
12315;DHT22;23886;46.614;14.276;2022-12-07T09:46:35;3.10;99.90
12315;DHT22;23886;46.614;14.276;2022-12-07T09:49:03;3.20;99.90
12315;DHT22;23886;46.614;14.276;2022-12-07T09:51:31;3.30;99.90
12315;DHT22;23886;46.614;14.276;2022-12-07T09:53:59;3.30;99.90
12315;DHT22;23886;46.614;14.276;2022-12-07T09:56:30;3.20;99.90
12315;DHT22;23886;46.614;14.276;2022-12-07T09:59:01;3.20;99.90
12315;DHT22;23886;46.614;14.276;2022-12-07T10:01:29;3.30;99.90
12315;DHT22;23886;46.614;14.276;2022-12-07T10:04:02;3.30;99.90
12315;DHT22;23886;46.614;14.276;2022-12-07T10:06:32;3.30;99.90
12315;DHT22;23886;46.614;14.276;2022-12-07T10:08:59;3.20;99.90
12315;DHT22;23886;46.614;14.276;2022-12-07T10:11:26;3.40;99.90
12315;DHT22;23886;46.614;14.276;2022-12-07T10:13:54;3.20;99.90
12315;DHT22;23886;46.614;14.276;2022-12-07T10:16:35;3.20;99.90
12315;DHT22;23886;46.614;14.276;2022-12-07T10:19:19;3.40;99.90
12315;DHT22;23886;46.614;14.276;2022-12-07T10:22:04;3.40;99.90
12315;DHT22;23886;46.614;14.276;2022-12-07T10:24:32;3.30;99.90
12315;DHT22;23886;46.614;14.276;2022-12-07T10:26:59;3.30;99.90
12315;DHT22;23886;46.614;14.276;2022-12-07T10:29:31;3.40;99.90
12315;DHT22;23886;46.614;14.276;2022-12-07T10:32:01;3.50;99.90
12315;DHT22;23886;46.614;14.276;2022-12-07T10:34:29;3.50;99.90
12315;DHT22;23886;46.614;14.276;2022-12-07T10:37:16;3.50;99.90
12315;DHT22;23886;46.614;14.276;2022-12-07T10:39:45;3.40;99.90
12315;DHT22;23886;46.614;14.276;2022-12-07T10:42:18;3.30;99.90
12315;DHT22;23886;46.614;14.276;2022-12-07T10:44:47;3.40;99.90
12315;DHT22;23886;46.614;14.276;2022-12-07T10:47:23;3.50;99.90
12315;DHT22;23886;46.614;14.276;2022-12-07T10:50:25;3.40;99.90
12315;DHT22;23886;46.614;14.276;2022-12-07T10:53:35;3.50;99.90
12315;DHT22;23886;46.614;14.276;2022-12-07T10:56:35;3.70;99.90
12315;DHT22;23886;46.614;14.276;2022-12-07T10:59:25;4.10;99.90
12315;DHT22;23886;46.614;14.276;2022-12-07T11:02:08;4.00;99.90
12315;DHT22;23886;46.614;14.276;2022-12-07T11:04:48;4.00;99.90
12315;DHT22;23886;46.614;14.276;2022-12-07T11:07:31;4.00;99.90
12315;DHT22;23886;46.614;14.276;2022-12-07T11:10:06;3.90;99.90
12315;DHT22;23886;46.614;14.276;2022-12-07T11:12:52;3.80;99.90
12315;DHT22;23886;46.614;14.276;2022-12-07T11:15:24;3.80;99.90
12315;DHT22;23886;46.614;14.276;2022-12-07T11:17:59;4.10;99.90
12315;DHT22;23886;46.614;14.276;2022-12-07T11:20:39;4.20;99.90
12315;DHT22;23886;46.614;14.276;2022-12-07T11:23:17;3.90;99.90
12315;DHT22;23886;46.614;14.276;2022-12-07T11:25:52;3.80;99.90
12315;DHT22;23886;46.614;14.276;2022-12-07T11:28:29;3.70;99.90
12315;DHT22;23886;46.614;14.276;2022-12-07T11:31:09;3.80;99.90
12315;DHT22;23886;46.614;14.276;2022-12-07T11:33:44;3.70;99.90
12315;DHT22;23886;46.614;14.276;2022-12-07T11:36:24;4.10;99.90
12315;DHT22;23886;46.614;14.276;2022-12-07T11:39:00;4.40;99.90
12315;DHT22;23886;46.614;14.276;2022-12-07T11:41:30;4.50;99.90
12315;DHT22;23886;46.614;14.276;2022-12-07T11:44:02;4.60;99.90
12315;DHT22;23886;46.614;14.276;2022-12-07T11:46:44;4.10;99.90
12315;DHT22;23886;46.614;14.276;2022-12-07T11:49:17;3.90;99.90
12315;DHT22;23886;46.614;14.276;2022-12-07T11:51:49;4.00;99.90
12315;DHT22;23886;46.614;14.276;2022-12-07T11:54:21;4.00;99.90
12315;DHT22;23886;46.614;14.276;2022-12-07T11:56:50;4.00;99.90
12315;DHT22;23886;46.614;14.276;2022-12-07T11:59:22;3.80;99.90
12315;DHT22;23886;46.614;14.276;2022-12-07T12:01:53;3.90;99.90
12315;DHT22;23886;46.614;14.276;2022-12-07T12:07:49;3.90;99.90
12315;DHT22;23886;46.614;14.276;2022-12-07T12:10:24;4.00;99.90
12315;DHT22;23886;46.614;14.276;2022-12-07T12:13:06;4.10;99.90
12315;DHT22;23886;46.614;14.276;2022-12-07T12:15:47;4.00;99.90
12315;DHT22;23886;46.614;14.276;2022-12-07T12:21:39;4.00;99.90
12315;DHT22;23886;46.614;14.276;2022-12-07T12:24:13;3.90;99.90
12315;DHT22;23886;46.614;14.276;2022-12-07T12:26:49;3.80;99.90
12315;DHT22;23886;46.614;14.276;2022-12-07T12:29:23;3.70;99.90
12315;DHT22;23886;46.614;14.276;2022-12-07T12:32:17;3.60;99.90
12315;DHT22;23886;46.614;14.276;2022-12-07T12:35:17;3.70;99.90
12315;DHT22;23886;46.614;14.276;2022-12-07T12:37:46;3.80;99.90
12315;DHT22;23886;46.614;14.276;2022-12-07T12:40:43;3.90;99.90
12315;DHT22;23886;46.614;14.276;2022-12-07T12:43:45;4.20;99.90
12315;DHT22;23886;46.614;14.276;2022-12-07T12:46:45;4.20;99.90
12315;DHT22;23886;46.614;14.276;2022-12-07T12:49:35;3.90;99.90
12315;DHT22;23886;46.614;14.276;2022-12-07T12:55:18;3.80;99.90
12315;DHT22;23886;46.614;14.276;2022-12-07T13:03:53;4.20;99.90
12315;DHT22;23886;46.614;14.276;2022-12-07T13:06:35;4.20;99.90
12315;DHT22;23886;46.614;14.276;2022-12-07T13:09:04;3.90;99.90
12315;DHT22;23886;46.614;14.276;2022-12-07T13:11:33;3.70;99.90
12315;DHT22;23886;46.614;14.276;2022-12-07T13:17:09;4.00;99.90
12315;DHT22;23886;46.614;14.276;2022-12-07T13:19:58;3.90;99.90
12315;DHT22;23886;46.614;14.276;2022-12-07T13:22:42;3.80;99.90
12315;DHT22;23886;46.614;14.276;2022-12-07T13:25:12;3.80;99.90
12315;DHT22;23886;46.614;14.276;2022-12-07T13:27:50;3.60;99.90
12315;DHT22;23886;46.614;14.276;2022-12-07T13:30:21;3.50;99.90
12315;DHT22;23886;46.614;14.276;2022-12-07T13:32:53;3.50;99.90
12315;DHT22;23886;46.614;14.276;2022-12-07T13:35:32;3.50;99.90
12315;DHT22;23886;46.614;14.276;2022-12-07T13:38:02;3.50;99.90
12315;DHT22;23886;46.614;14.276;2022-12-07T13:40:30;3.30;99.90
12315;DHT22;23886;46.614;14.276;2022-12-07T13:42:58;3.30;99.90
12315;DHT22;23886;46.614;14.276;2022-12-07T13:45:27;3.30;99.90
12315;DHT22;23886;46.614;14.276;2022-12-07T13:48:14;3.30;99.90
12315;DHT22;23886;46.614;14.276;2022-12-07T13:50:41;3.30;99.90
12315;DHT22;23886;46.614;14.276;2022-12-07T13:53:12;3.20;99.90
12315;DHT22;23886;46.614;14.276;2022-12-07T13:55:45;3.40;99.90
12315;DHT22;23886;46.614;14.276;2022-12-07T13:58:12;3.50;99.90
12315;DHT22;23886;46.614;14.276;2022-12-07T14:00:40;3.60;99.90
12315;DHT22;23886;46.614;14.276;2022-12-07T14:03:27;3.60;99.90
12315;DHT22;23886;46.614;14.276;2022-12-07T14:06:24;3.80;99.90
12315;DHT22;23886;46.614;14.276;2022-12-07T14:09:16;3.90;99.90
12315;DHT22;23886;46.614;14.276;2022-12-07T14:11:44;3.60;99.90
12315;DHT22;23886;46.614;14.276;2022-12-07T14:14:15;3.40;99.90
12315;DHT22;23886;46.614;14.276;2022-12-07T14:16:43;3.50;99.90
12315;DHT22;23886;46.614;14.276;2022-12-07T14:19:45;3.60;99.90
12315;DHT22;23886;46.614;14.276;2022-12-07T14:22:31;3.60;99.90
12315;DHT22;23886;46.614;14.276;2022-12-07T14:25:01;3.40;99.90
12315;DHT22;23886;46.614;14.276;2022-12-07T14:27:32;3.40;99.90
12315;DHT22;23886;46.614;14.276;2022-12-07T14:30:00;3.50;99.90
12315;DHT22;23886;46.614;14.276;2022-12-07T14:32:29;3.40;99.90
12315;DHT22;23886;46.614;14.276;2022-12-07T14:35:07;3.30;99.90
12315;DHT22;23886;46.614;14.276;2022-12-07T14:37:36;3.40;99.90
12315;DHT22;23886;46.614;14.276;2022-12-07T14:40:04;3.40;99.90
12315;DHT22;23886;46.614;14.276;2022-12-07T14:42:33;3.20;99.90
12315;DHT22;23886;46.614;14.276;2022-12-07T14:45:01;3.20;99.90
12315;DHT22;23886;46.614;14.276;2022-12-07T14:47:28;3.10;99.90
12315;DHT22;23886;46.614;14.276;2022-12-07T14:49:54;3.10;99.90
12315;DHT22;23886;46.614;14.276;2022-12-07T14:52:27;3.00;99.90
12315;DHT22;23886;46.614;14.276;2022-12-07T14:54:54;3.10;99.90
12315;DHT22;23886;46.614;14.276;2022-12-07T14:57:21;3.10;99.90
12315;DHT22;23886;46.614;14.276;2022-12-07T14:59:48;3.20;99.90
12315;DHT22;23886;46.614;14.276;2022-12-07T15:02:15;3.10;99.90
12315;DHT22;23886;46.614;14.276;2022-12-07T15:04:42;3.00;99.90
12315;DHT22;23886;46.614;14.276;2022-12-07T15:07:14;3.00;99.90
12315;DHT22;23886;46.614;14.276;2022-12-07T15:09:44;3.00;99.90
12315;DHT22;23886;46.614;14.276;2022-12-07T15:12:10;3.00;99.90
12315;DHT22;23886;46.614;14.276;2022-12-07T15:14:37;2.90;99.90
12315;DHT22;23886;46.614;14.276;2022-12-07T15:17:04;2.90;99.90
12315;DHT22;23886;46.614;14.276;2022-12-07T15:19:32;2.90;99.90
12315;DHT22;23886;46.614;14.276;2022-12-07T15:21:58;2.90;99.90
12315;DHT22;23886;46.614;14.276;2022-12-07T15:24:26;2.80;99.90
12315;DHT22;23886;46.614;14.276;2022-12-07T15:26:54;2.90;99.90
12315;DHT22;23886;46.614;14.276;2022-12-07T15:29:22;2.90;99.90
12315;DHT22;23886;46.614;14.276;2022-12-07T15:31:50;2.80;99.90
12315;DHT22;23886;46.614;14.276;2022-12-07T15:34:17;2.80;99.90
12315;DHT22;23886;46.614;14.276;2022-12-07T15:36:44;2.80;99.90
12315;DHT22;23886;46.614;14.276;2022-12-07T15:39:11;2.90;99.90
12315;DHT22;23886;46.614;14.276;2022-12-07T15:41:38;2.90;99.90
12315;DHT22;23886;46.614;14.276;2022-12-07T15:44:09;2.80;99.90
12315;DHT22;23886;46.614;14.276;2022-12-07T15:46:54;2.80;99.90
12315;DHT22;23886;46.614;14.276;2022-12-07T15:49:21;2.80;99.90
12315;DHT22;23886;46.614;14.276;2022-12-07T15:51:48;2.70;99.90
12315;DHT22;23886;46.614;14.276;2022-12-07T15:54:19;2.70;99.90
12315;DHT22;23886;46.614;14.276;2022-12-07T15:56:47;2.70;99.90
12315;DHT22;23886;46.614;14.276;2022-12-07T15:59:16;2.70;99.90
12315;DHT22;23886;46.614;14.276;2022-12-07T16:01:43;2.70;99.90
12315;DHT22;23886;46.614;14.276;2022-12-07T16:04:10;2.70;99.90
12315;DHT22;23886;46.614;14.276;2022-12-07T16:06:38;2.70;99.90
12315;DHT22;23886;46.614;14.276;2022-12-07T16:09:05;2.60;99.90
12315;DHT22;23886;46.614;14.276;2022-12-07T16:11:32;2.70;99.90
12315;DHT22;23886;46.614;14.276;2022-12-07T16:13:59;2.80;99.90
12315;DHT22;23886;46.614;14.276;2022-12-07T16:16:28;2.70;99.90